Time;durP1;ratioP1;P1;durP2;ratioP2;P2;SDS_P1;SDS_P2;PMS_P1;PMS_P2;Temp;Humidity;BMP_temperature;BMP_pressure;BME280_temperature;BME280_humidity;BME280_pressure;Samples;Min_cycle;Max_cycle;Signal;HPM_P1;HPM_P2
2023/03/03 00:02:21;;;;;;;2.50;2.30;;;;;;;19.43;30.32;99270.27;1881988;75;28042;-54
2023/03/03 00:05:14;;;;;;;2.67;2.45;;;;;;;19.45;30.33;99274.44;1901369;75;28090;-55
2023/03/03 00:08:02;;;;;;;2.58;2.37;;;;;;;19.46;30.30;99270.67;1899774;75;28043;-55
2023/03/03 00:10:51;;;;;;;2.50;2.20;;;;;;;19.46;30.30;99273.92;1886946;75;28032;-55
2023/03/03 00:13:52;;;;;;;2.40;2.20;;;;;;;19.44;30.32;99277.39;1881118;75;28137;-55
2023/03/03 00:16:41;;;;;;;2.25;2.10;;;;;;;19.42;30.33;99270.78;1892535;75;28169;-55
2023/03/03 00:19:33;;;;;;;2.40;2.20;;;;;;;19.42;30.33;99269.42;1890408;75;28040;-52
2023/03/03 00:22:30;;;;;;;2.20;2.10;;;;;;;19.44;30.36;99273.31;1869435;76;31044;-54
2023/03/03 00:25:27;;;;;;;2.15;1.95;;;;;;;19.42;30.36;99272.70;1869211;76;28238;-54
2023/03/03 00:28:26;;;;;;;2.37;2.17;;;;;;;19.42;30.38;99279.51;1881093;75;28599;-56
2023/03/03 00:31:23;;;;;;;2.10;2.00;;;;;;;19.41;30.42;99277.83;1878147;75;28084;-52
2023/03/03 00:34:20;;;;;;;2.15;2.00;;;;;;;19.40;30.44;99276.14;1901700;75;28098;-54
2023/03/03 00:37:17;;;;;;;2.47;2.27;;;;;;;19.40;30.42;99275.63;1867831;75;28172;-54
2023/03/03 00:40:26;;;;;;;2.13;2.03;;;;;;;19.39;30.43;99277.21;1861574;75;28250;-57
2023/03/03 00:43:23;;;;;;;2.20;2.10;;;;;;;19.40;30.46;99282.95;1857057;77;28196;-55
2023/03/03 00:46:15;;;;;;;2.10;2.00;;;;;;;19.39;30.49;99286.74;1870316;75;28125;-53
2023/03/03 00:49:06;;;;;;;2.50;2.30;;;;;;;19.38;30.47;99283.18;1893155;75;28125;-57
2023/03/03 00:51:54;;;;;;;2.10;2.00;;;;;;;19.40;30.46;99287.88;1857211;77;28275;-56
2023/03/03 00:54:42;;;;;;;1.98;1.87;;;;;;;19.42;30.43;99284.95;1876246;75;28139;-54
2023/03/03 00:57:31;;;;;;;2.22;2.12;;;;;;;19.41;30.41;99288.72;1882644;75;28067;-55
2023/03/03 01:00:20;;;;;;;2.20;2.10;;;;;;;19.43;30.44;99287.97;1859989;75;28723;-56
2023/03/03 01:03:11;;;;;;;2.10;2.00;;;;;;;19.41;30.43;99289.56;1890750;75;28090;-54
2023/03/03 01:06:00;;;;;;;2.02;1.92;;;;;;;19.42;30.44;99284.41;1887242;75;28120;-57
2023/03/03 01:08:48;;;;;;;2.35;2.25;;;;;;;19.45;30.42;99283.13;1869871;75;28043;-55
2023/03/03 01:11:36;;;;;;;2.20;1.90;;;;;;;19.44;30.40;99295.10;1879607;75;28093;-59
2023/03/03 01:14:25;;;;;;;2.30;2.10;;;;;;;19.42;30.42;99286.31;1887606;75;28072;-55
2023/03/03 01:17:13;;;;;;;2.27;2.10;;;;;;;19.43;30.43;99292.89;1886217;75;28075;-56
2023/03/03 01:20:03;;;;;;;2.40;2.20;;;;;;;19.44;30.39;99296.47;1877808;75;28208;-51
2023/03/03 01:22:51;;;;;;;2.37;2.17;;;;;;;19.43;30.43;99305.16;1891039;75;28157;-58
2023/03/03 01:25:40;;;;;;;2.40;2.20;;;;;;;19.42;30.43;99302.66;1890707;75;28255;-56
2023/03/03 01:28:28;;;;;;;2.10;1.95;;;;;;;19.44;30.44;99296.47;1872545;75;28145;-54
2023/03/03 01:31:17;;;;;;;2.33;2.20;;;;;;;19.43;30.42;99305.16;1885434;74;28071;-52
2023/03/03 01:34:06;;;;;;;2.20;2.10;;;;;;;19.42;30.43;99304.83;1890947;74;28272;-56
2023/03/03 01:36:54;;;;;;;2.30;2.20;;;;;;;19.41;30.44;99305.06;1905001;74;28114;-56
2023/03/03 01:39:42;;;;;;;2.20;2.03;;;;;;;19.42;30.45;99308.11;1899486;74;28528;-58
2023/03/03 01:42:31;;;;;;;2.23;2.10;;;;;;;19.45;30.42;99299.47;1895257;74;28235;-56
2023/03/03 01:45:26;;;;;;;2.40;2.20;;;;;;;19.44;30.43;99304.08;1892561;74;28101;-53
2023/03/03 01:48:23;;;;;;;2.33;2.12;;;;;;;19.41;30.47;99305.06;1904995;74;28105;-57
2023/03/03 01:51:17;;;;;;;2.30;2.10;;;;;;;19.42;30.45;99309.47;1900788;74;28116;-56
2023/03/03 01:54:08;;;;;;;2.33;2.20;;;;;;;19.42;30.47;99306.74;1895523;74;28122;-51
2023/03/03 01:57:01;;;;;;;2.12;2.00;;;;;;;19.41;30.48;99301.81;1895292;74;28143;-53
2023/03/03 01:59:52;;;;;;;2.00;1.90;;;;;;;19.42;30.45;99300.75;1895481;74;28187;-54
2023/03/03 02:02:42;;;;;;;2.30;2.10;;;;;;;19.40;30.46;99300.13;1899345;74;28152;-54
2023/03/03 02:05:30;;;;;;;2.50;2.30;;;;;;;19.40;30.49;99295.20;1884527;74;28116;-52
2023/03/03 02:08:22;;;;;;;2.10;2.00;;;;;;;19.41;30.51;99299.61;1891157;74;28094;-56
2023/03/03 02:11:12;;;;;;;2.25;2.15;;;;;;;19.42;30.47;99298.58;1893908;74;28196;-52
2023/03/03 02:14:00;;;;;;;2.20;2.10;;;;;;;19.40;30.49;99297.93;1902142;74;28097;-53
2023/03/03 02:16:49;;;;;;;2.40;2.10;;;;;;;19.39;30.51;99300.36;1905346;74;28270;-54
2023/03/03 02:20:08;;;;;;;2.27;2.17;;;;;;;19.39;30.48;99296.28;1906253;74;28153;-54
2023/03/03 02:23:05;;;;;;;2.10;2.00;;;;;;;19.42;30.52;99304.02;1884879;74;28151;-56
2023/03/03 02:25:59;;;;;;;2.00;1.90;;;;;;;19.40;30.52;99299.29;1906439;74;28034;-54
2023/03/03 02:28:51;;;;;;;2.02;1.92;;;;;;;19.38;30.52;99300.04;1905195;74;28065;-56
2023/03/03 02:31:40;;;;;;;2.40;1.90;;;;;;;19.36;30.52;99292.62;1899314;74;28109;-53
2023/03/03 02:34:28;;;;;;;2.30;2.10;;;;;;;19.36;30.53;99296.19;1885827;74;28089;-56
2023/03/03 02:37:18;;;;;;;2.47;2.27;;;;;;;19.39;30.49;99296.28;1887510;74;28186;-53
2023/03/03 02:40:09;;;;;;;2.10;2.00;;;;;;;19.39;30.54;99294.91;1897456;74;28174;-53
2023/03/03 02:43:01;;;;;;;2.20;2.10;;;;;;;19.39;30.49;99285.38;1899021;74;28021;-55
2023/03/03 02:45:49;;;;;;;2.10;2.00;;;;;;;19.40;30.49;99289.23;1895663;74;28031;-52
2023/03/03 02:48:38;;;;;;;2.20;2.10;;;;;;;19.40;30.49;99289.23;1894864;74;28257;-53
2023/03/03 02:51:27;;;;;;;2.00;1.90;;;;;;;19.39;30.50;99288.11;1875436;74;28281;-55
2023/03/03 02:54:18;;;;;;;2.15;2.00;;;;;;;19.41;30.45;99290.08;1852303;77;28303;-56
2023/03/03 02:57:07;;;;;;;2.00;1.90;;;;;;;19.42;30.46;99293.13;1859301;75;28312;-53
2023/03/03 02:59:56;;;;;;;2.12;2.02;;;;;;;19.41;30.47;99287.36;1862690;75;28234;-57
2023/03/03 03:02:44;;;;;;;2.02;1.82;;;;;;;19.44;30.43;99293.73;1884429;75;28182;-54
2023/03/03 03:05:33;;;;;;;1.92;1.82;;;;;;;19.43;30.44;99294.78;1852335;77;28200;-53
2023/03/03 03:08:22;;;;;;;2.00;1.90;;;;;;;19.41;30.46;99298.25;1844503;75;28105;-56
2023/03/03 03:11:10;;;;;;;1.97;1.87;;;;;;;19.39;30.49;99295.76;1862602;75;28296;-55
2023/03/03 03:13:59;;;;;;;1.82;1.72;;;;;;;19.41;30.46;99299.09;1868156;75;28240;-56
2023/03/03 03:16:48;;;;;;;2.20;2.10;;;;;;;19.40;30.47;99305.58;1863285;75;28230;-52
2023/03/03 03:19:36;;;;;;;2.10;2.00;;;;;;;19.39;30.49;99301.72;1862805;75;28161;-56
2023/03/03 03:22:25;;;;;;;2.00;1.90;;;;;;;19.40;30.50;99304.73;1863255;75;28191;-55
2023/03/03 03:25:14;;;;;;;2.05;1.95;;;;;;;19.38;30.51;99304.97;1868202;75;28160;-55
2023/03/03 03:28:03;;;;;;;2.37;2.17;;;;;;;19.43;30.45;99307.87;1874622;75;28214;-56
2023/03/03 03:30:53;;;;;;;2.58;2.37;;;;;;;19.42;30.48;99309.47;1873796;75;28216;-57
2023/03/03 03:33:42;;;;;;;2.07;1.97;;;;;;;19.41;30.48;99307.78;1872378;75;28145;-54
2023/03/03 03:36:31;;;;;;;2.20;2.05;;;;;;;19.39;30.49;99308.02;1866636;75;28112;-56
2023/03/03 03:39:20;;;;;;;1.92;1.82;;;;;;;19.39;30.48;99308.53;1862854;75;28116;-56
2023/03/03 03:42:10;;;;;;;2.25;2.05;;;;;;;19.40;30.46;99311.03;1862416;75;28191;-54
2023/03/03 03:44:59;;;;;;;2.42;2.22;;;;;;;19.42;30.46;99306.74;1865377;75;29370;-56
2023/03/03 03:47:47;;;;;;;3.42;3.12;;;;;;;19.44;30.39;99316.34;1866248;75;28187;-57
2023/03/03 03:50:36;;;;;;;2.70;2.50;;;;;;;19.43;30.26;99314.69;1863105;75;28153;-55
2023/03/03 03:53:28;;;;;;;2.47;2.20;;;;;;;19.42;30.25;99320.36;1862496;75;28257;-56
2023/03/03 03:56:16;;;;;;;2.40;2.20;;;;;;;19.43;30.37;99313.84;1866196;75;28287;-56
2023/03/03 03:59:08;;;;;;;2.33;2.23;;;;;;;19.40;30.38;99314.27;1853923;75;28195;-58
2023/03/03 04:01:57;;;;;;;2.30;2.20;;;;;;;19.40;30.43;99312.91;1859478;75;28212;-58
2023/03/03 04:04:46;;;;;;;2.08;1.98;;;;;;;19.40;30.38;99307.46;1862989;75;28258;-54
2023/03/03 04:07:35;;;;;;;2.37;2.17;;;;;;;19.39;30.43;99303.93;1867334;75;28261;-55
2023/03/03 04:10:23;;;;;;;2.30;2.10;;;;;;;19.39;30.44;99318.06;1864252;75;28121;-55
2023/03/03 04:13:12;;;;;;;2.33;2.20;;;;;;;19.40;30.45;99315.63;1862804;75;28165;-56
2023/03/03 04:16:02;;;;;;;2.10;2.00;;;;;;;19.42;30.42;99309.47;1863151;75;28259;-56
2023/03/03 04:18:51;;;;;;;2.23;2.13;;;;;;;19.41;30.43;99310.51;1868258;75;28230;-57
2023/03/03 04:21:40;;;;;;;2.07;1.97;;;;;;;19.42;30.43;99308.92;1823769;77;28331;-55
2023/03/03 04:24:28;;;;;;;2.22;2.02;;;;;;;19.41;30.45;99310.51;1819728;78;28339;-54
2023/03/03 04:27:17;;;;;;;2.15;2.05;;;;;;;19.41;30.44;99318.16;1822879;77;28267;-55
2023/03/03 04:30:06;;;;;;;2.25;2.15;;;;;;;19.41;30.43;99318.16;1808862;78;28383;-57
2023/03/03 04:32:55;;;;;;;2.10;2.00;;;;;;;19.39;30.44;99320.27;1821435;78;28316;-55
2023/03/03 04:35:45;;;;;;;2.27;2.10;;;;;;;19.41;30.43;99318.68;1765675;78;28504;-51
2023/03/03 04:38:33;;;;;;;2.20;1.92;;;;;;;19.41;30.43;99317.31;1762601;80;28512;-54
2023/03/03 04:41:21;;;;;;;2.23;2.10;;;;;;;19.40;30.45;99322.44;1782942;79;28341;-56
2023/03/03 04:44:11;;;;;;;2.25;2.12;;;;;;;19.38;30.49;99316.38;1798563;78;28197;-55
2023/03/03 04:46:59;;;;;;;2.02;1.92;;;;;;;19.39;30.45;99322.16;1797623;78;28446;-56
2023/03/03 04:49:48;;;;;;;1.93;1.83;;;;;;;19.30;30.47;99306.02;1816518;78;28240;-54
2023/03/03 04:52:37;;;;;;;2.10;2.00;;;;;;;19.40;30.47;99317.84;1781942;79;28280;-51
2023/03/03 04:55:27;;;;;;;2.05;1.95;;;;;;;19.40;30.47;99315.11;1814887;78;28139;-55
2023/03/03 04:58:18;;;;;;;2.00;1.90;;;;;;;19.39;30.47;99312.62;1830879;78;28256;-56
2023/03/03 05:01:07;;;;;;;2.05;1.95;;;;;;;19.39;30.43;99315.34;1833630;77;32065;-55
2023/03/03 05:03:55;;;;;;;1.90;1.80;;;;;;;19.39;30.47;99316.70;1815344;78;28202;-55
2023/03/03 05:06:44;;;;;;;2.52;2.33;;;;;;;19.38;30.46;99319.11;1813198;78;28280;-54
2023/03/03 05:09:32;;;;;;;2.45;2.25;;;;;;;19.39;30.39;99320.79;1812596;78;28323;-52
2023/03/03 05:12:21;;;;;;;2.20;2.10;;;;;;;19.40;30.38;99325.17;1804708;78;28477;-54
2023/03/03 05:15:10;;;;;;;2.10;2.00;;;;;;;19.39;30.44;99325.72;1814267;78;28266;-55
2023/03/03 05:18:00;;;;;;;3.07;2.40;;;;;;;19.38;30.46;99323.19;1822218;78;28437;-57
2023/03/03 05:20:51;;;;;;;2.40;2.25;;;;;;;19.38;30.47;99317.74;1816243;78;28297;-52
2023/03/03 05:23:39;;;;;;;2.37;2.10;;;;;;;19.38;30.49;99325.91;1819017;78;28187;-54
2023/03/03 05:26:27;;;;;;;1.92;1.82;;;;;;;19.39;30.48;99323.52;1813720;78;28209;-55
2023/03/03 05:29:16;;;;;;;2.30;2.20;;;;;;;19.38;30.47;99324.03;1807759;78;28272;-55
2023/03/03 05:32:04;;;;;;;2.10;2.00;;;;;;;19.36;30.50;99323.42;1782718;79;28307;-56
2023/03/03 05:34:53;;;;;;;2.35;2.15;;;;;;;19.39;30.48;99322.16;1812751;77;28554;-53
2023/03/03 05:37:46;;;;;;;2.05;1.95;;;;;;;19.37;30.48;99325.63;1858755;76;28293;-55
2023/03/03 05:40:31;;;;;;;2.13;2.03;;;;;;;19.39;30.48;99331.17;1858939;76;28314;-55
2023/03/03 05:43:19;;;;;;;2.00;1.90;;;;;;;19.39;30.48;99327.59;1836627;77;28326;-55
2023/03/03 05:46:08;;;;;;;2.08;1.98;;;;;;;19.39;30.48;99322.16;1851342;76;28253;-54
2023/03/03 05:48:56;;;;;;;2.10;1.90;;;;;;;19.39;30.48;99326.23;1861019;76;28195;-55
2023/03/03 05:51:45;;;;;;;2.30;2.10;;;;;;;19.37;30.49;99321.54;1859977;76;28132;-55
2023/03/03 05:54:33;;;;;;;2.30;2.20;;;;;;;19.38;30.49;99324.55;1860085;76;28217;-53
2023/03/03 05:57:21;;;;;;;2.00;1.90;;;;;;;19.38;30.49;99321.31;1848649;76;28204;-54
2023/03/03 06:00:12;;;;;;;2.00;1.90;;;;;;;19.38;30.48;99321.83;1847876;76;28146;-53
2023/03/03 06:02:59;;;;;;;2.30;2.10;;;;;;;19.40;30.47;99327.89;1848446;76;28250;-56
2023/03/03 06:05:47;;;;;;;1.87;1.77;;;;;;;19.38;30.49;99326.76;1852152;76;28172;-56
2023/03/03 06:08:36;;;;;;;2.20;2.10;;;;;;;19.36;30.51;99324.78;1838859;76;28224;-52
2023/03/03 06:11:24;;;;;;;1.90;1.80;;;;;;;19.39;30.51;99328.96;1858757;76;28137;-51
2023/03/03 06:14:12;;;;;;;2.25;2.15;;;;;;;19.38;30.53;99330.00;1855477;76;28216;-56
2023/03/03 06:17:01;;;;;;;2.05;1.95;;;;;;;19.40;30.48;99337.42;1849728;76;28730;-56
2023/03/03 06:19:49;;;;;;;2.10;2.00;;;;;;;19.39;30.49;99339.34;1841146;76;28292;-56
2023/03/03 06:22:38;;;;;;;2.00;1.90;;;;;;;19.40;30.51;99339.63;1838911;76;28216;-56
2023/03/03 06:25:27;;;;;;;1.98;1.87;;;;;;;19.41;30.48;99337.75;1852091;76;28242;-55
2023/03/03 06:28:16;;;;;;;2.20;2.10;;;;;;;19.39;30.54;99348.03;1848705;76;28121;-56
2023/03/03 06:31:04;;;;;;;2.00;1.90;;;;;;;19.39;30.50;99348.03;1847961;76;28117;-56
2023/03/03 06:33:52;;;;;;;1.90;1.80;;;;;;;19.39;30.54;99352.95;1848008;76;28191;-59
2023/03/03 06:36:41;;;;;;;1.72;1.62;;;;;;;19.41;30.50;99354.09;1848696;76;28284;-55
2023/03/03 06:39:29;;;;;;;1.98;1.87;;;;;;;19.39;30.49;99359.77;1837681;77;28226;-55
2023/03/03 06:42:18;;;;;;;2.08;1.98;;;;;;;19.39;30.52;99363.01;1846417;77;28177;-57
2023/03/03 06:45:08;;;;;;;2.10;2.00;;;;;;;19.40;30.52;99368.75;1845368;77;28105;-55
2023/03/03 06:47:56;;;;;;;2.10;2.00;;;;;;;19.41;30.48;99364.98;1840006;77;28129;-53
2023/03/03 06:50:45;;;;;;;2.20;2.10;;;;;;;19.39;30.48;99369.30;1836315;77;28251;-57
2023/03/03 06:53:33;;;;;;;1.90;1.80;;;;;;;19.39;30.48;99371.18;1853061;77;28199;-56
2023/03/03 06:56:24;;;;;;;2.00;1.90;;;;;;;19.40;30.50;99372.83;1856824;76;28189;-55
2023/03/03 06:59:19;;;;;;;2.35;2.15;;;;;;;19.40;30.49;99372.31;1851772;76;28230;-55
2023/03/03 07:02:11;;;;;;;2.25;2.00;;;;;;;19.39;30.51;99383.44;1847757;76;28118;-55
2023/03/03 07:04:59;;;;;;;2.10;2.00;;;;;;;19.38;30.54;99383.11;1847895;76;38497;-51
2023/03/03 07:07:48;;;;;;;1.90;1.80;;;;;;;19.39;30.56;99390.25;1848338;76;28191;-56
2023/03/03 07:10:36;;;;;;;1.90;1.80;;;;;;;19.38;30.52;99389.92;1851703;76;28193;-55
2023/03/03 07:13:27;;;;;;;2.10;2.00;;;;;;;19.40;30.52;99385.09;1836237;77;28135;-56
2023/03/03 07:16:18;;;;;;;2.22;2.02;;;;;;;19.41;30.50;99385.41;1864842;76;28234;-53
2023/03/03 07:19:09;;;;;;;2.00;1.90;;;;;;;19.40;30.49;99387.30;1826215;78;28220;-54
2023/03/03 07:21:58;;;;;;;2.00;1.85;;;;;;;19.38;30.54;99386.67;1806157;78;28210;-56
2023/03/03 07:24:50;;;;;;;2.15;2.05;;;;;;;19.39;30.57;99394.33;1800871;79;28450;-54
2023/03/03 07:27:39;;;;;;;2.00;1.90;;;;;;;19.40;30.56;99395.46;1800045;79;28376;-57
2023/03/03 07:30:30;;;;;;;2.10;2.00;;;;;;;19.37;30.57;99393.71;1795428;79;28268;-56
2023/03/03 07:33:33;;;;;;;2.17;2.00;;;;;;;19.41;30.57;99394.95;1840518;77;28173;-55
2023/03/03 07:36:28;;;;;;;2.00;1.90;;;;;;;19.40;30.57;99392.74;1849791;76;28129;-57
2023/03/03 07:39:37;;;;;;;1.85;1.75;;;;;;;19.41;30.54;99397.16;1847586;76;28242;-53
2023/03/03 07:42:28;;;;;;;2.10;2.00;;;;;;;19.41;30.55;99397.67;1847843;76;28169;-58
2023/03/03 07:45:33;;;;;;;1.98;1.87;;;;;;;19.38;30.59;99394.84;1847687;76;28279;-54
2023/03/03 07:48:28;;;;;;;2.35;2.15;;;;;;;19.36;30.61;99397.47;1835606;77;28221;-56
2023/03/03 07:51:21;;;;;;;2.10;1.90;;;;;;;19.38;30.60;99402.17;1853870;76;28201;-57
2023/03/03 07:54:30;;;;;;;2.13;2.03;;;;;;;19.38;30.59;99396.21;1837631;77;28118;-58
2023/03/03 07:57:28;;;;;;;2.47;2.07;;;;;;;19.41;30.59;99399.03;1805975;77;28607;-59
2023/03/03 08:00:19;;;;;;;2.30;2.10;;;;;;;19.37;30.64;99397.80;1858545;76;28203;-60
2023/03/03 08:03:14;;;;;;;2.37;2.17;;;;;;;19.40;30.61;99408.23;1827709;77;28186;-59
2023/03/03 08:06:05;;;;;;;1.85;1.75;;;;;;;19.40;30.61;99410.97;1838807;77;28226;-56
2023/03/03 08:08:53;;;;;;;2.02;1.92;;;;;;;19.42;30.58;99415.15;1850805;76;28129;-58
2023/03/03 08:11:57;;;;;;;2.10;1.90;;;;;;;19.41;30.62;99416.73;1847621;76;28120;-54
2023/03/03 08:14:46;;;;;;;2.02;1.92;;;;;;;19.41;30.59;99420.82;1847806;76;28164;-53
2023/03/03 08:17:38;;;;;;;2.17;1.98;;;;;;;19.42;30.58;99415.70;1847651;76;28253;-57
2023/03/03 08:20:38;;;;;;;2.08;1.98;;;;;;;19.42;30.57;99415.15;1856865;77;28125;-57
2023/03/03 08:23:26;;;;;;;2.00;1.90;;;;;;;19.45;30.57;99415.25;1850889;76;28109;-50
2023/03/03 08:26:15;;;;;;;2.40;2.20;;;;;;;19.45;30.59;99417.97;1847288;76;28165;-54
2023/03/03 08:29:03;;;;;;;2.15;2.05;;;;;;;19.43;30.58;99414.63;1847207;76;28493;-54
2023/03/03 08:31:52;;;;;;;1.85;1.75;;;;;;;19.42;30.62;99412.98;1851345;76;28267;-52
2023/03/03 08:34:40;;;;;;;2.00;1.90;;;;;;;19.43;30.64;99408.66;1833041;77;28349;-55
2023/03/03 08:37:28;;;;;;;2.07;1.87;;;;;;;19.45;30.54;99409.80;1844738;77;28324;-56
2023/03/03 08:40:17;;;;;;;2.20;2.07;;;;;;;19.45;30.54;99409.80;1792240;78;28236;-55
2023/03/03 08:43:05;;;;;;;2.10;2.00;;;;;;;19.46;30.62;99408.76;1794793;79;28375;-56
2023/03/03 08:45:57;;;;;;;2.30;2.10;;;;;;;19.46;30.55;99407.39;1775879;80;28345;-54
2023/03/03 08:48:45;;;;;;;2.40;2.20;;;;;;;19.46;30.58;99412.84;1808130;78;28411;-56
2023/03/03 08:51:34;;;;;;;2.10;2.00;;;;;;;19.45;30.60;99404.34;1795258;79;28348;-52
2023/03/03 08:54:22;;;;;;;2.30;2.20;;;;;;;19.45;30.64;99417.97;1825985;78;28266;-55
2023/03/03 08:57:11;;;;;;;2.20;2.10;;;;;;;19.45;30.57;99415.25;1845488;76;28113;-51
2023/03/03 08:59:59;;;;;;;2.10;2.00;;;;;;;19.47;30.64;99419.95;1847295;76;28258;-57
2023/03/03 09:02:49;;;;;;;2.33;2.15;;;;;;;19.46;30.62;99417.77;1849989;76;28348;-54
2023/03/03 09:05:39;;;;;;;2.20;2.10;;;;;;;19.49;30.57;99424.65;1838731;77;28161;-54
2023/03/03 09:08:27;;;;;;;2.20;2.10;;;;;;;19.45;30.62;99420.17;1835548;77;28268;-55
2023/03/03 09:11:22;;;;;;;2.00;1.90;;;;;;;19.47;30.58;99421.31;1835977;77;28267;-55
2023/03/03 09:14:19;;;;;;;2.20;2.10;;;;;;;19.47;30.62;99418.06;1844071;77;28121;-58
2023/03/03 09:17:20;;;;;;;2.10;2.00;;;;;;;19.48;30.64;99424.36;1842085;77;28255;-55
2023/03/03 09:20:17;;;;;;;2.10;2.00;;;;;;;19.45;30.66;99422.90;1826081;77;28236;-57
2023/03/03 09:23:30;;;;;;;2.50;2.30;;;;;;;19.45;30.66;99427.50;1858540;76;28251;-55
2023/03/03 09:26:41;;;;;;;2.12;2.02;;;;;;;19.45;30.69;99426.14;1844681;76;28156;-54
2023/03/03 09:29:32;;;;;;;1.93;1.83;;;;;;;19.45;30.68;99431.59;1836304;77;28229;-57
2023/03/03 09:32:32;;;;;;;2.90;2.15;;;;;;;19.43;30.72;99430.97;1848044;76;28219;-59
2023/03/03 09:35:40;;;;;;;2.02;1.92;;;;;;;19.43;30.70;99436.42;1849253;76;28220;-57
2023/03/03 09:38:34;;;;;;;1.77;1.67;;;;;;;19.39;30.72;99431.10;1843646;77;28248;-55
2023/03/03 09:41:45;;;;;;;2.13;2.03;;;;;;;19.44;30.75;99435.38;1855292;76;28235;-57
2023/03/03 09:44:57;;;;;;;2.15;2.00;;;;;;;19.45;30.74;99435.67;1850007;76;28114;-54
2023/03/03 09:47:57;;;;;;;2.15;2.05;;;;;;;19.44;30.77;99434.02;1850079;76;28215;-54
2023/03/03 09:50:52;;;;;;;2.00;1.90;;;;;;;19.42;30.77;99442.39;1836391;77;28274;-55
2023/03/03 09:53:58;;;;;;;2.10;2.00;;;;;;;19.42;30.77;99434.77;1856831;76;28149;-57
2023/03/03 09:57:18;;;;;;;2.10;2.00;;;;;;;19.44;30.77;99443.00;1850550;77;28126;-57
2023/03/03 10:00:29;;;;;;;2.02;1.92;;;;;;;19.45;30.79;99442.48;1811878;78;28193;-54
2023/03/03 10:03:55;;;;;;;1.97;1.87;;;;;;;19.44;30.79;99443.55;1780194;80;28947;-54
2023/03/03 10:06:48;;;;;;;2.07;1.97;;;;;;;19.40;30.81;99440.92;1799896;79;28367;-59
2023/03/03 10:09:39;;;;;;;2.10;2.00;;;;;;;19.41;30.83;99442.61;1799739;79;28288;-54
2023/03/03 10:12:45;;;;;;;2.20;2.10;;;;;;;19.42;30.84;99447.02;1794068;79;28387;-58
2023/03/03 10:15:54;;;;;;;2.25;2.05;;;;;;;19.46;30.81;99445.53;1841325;77;28219;-54
2023/03/03 10:19:02;;;;;;;2.50;2.30;;;;;;;19.47;30.78;99448.55;1868829;76;28183;-56
2023/03/03 10:22:00;;;;;;;2.35;2.20;;;;;;;19.48;30.78;99454.32;1851239;76;28179;-58
2023/03/03 10:25:00;;;;;;;2.25;2.05;;;;;;;19.46;30.79;99450.98;1847692;76;28282;-55
2023/03/03 10:28:01;;;;;;;2.37;2.20;;;;;;;19.49;30.76;99457.34;1821955;76;28191;-54
2023/03/03 10:31:04;;;;;;;2.35;2.15;;;;;;;19.47;30.78;99452.11;1847824;76;28284;-56
2023/03/03 10:34:10;;;;;;;1.98;1.87;;;;;;;19.46;30.78;99448.25;1835142;77;28239;-52
2023/03/03 10:37:07;;;;;;;2.75;2.08;;;;;;;19.48;30.81;99451.59;1850259;76;29099;-55
2023/03/03 10:40:23;;;;;;;2.25;2.15;;;;;;;19.48;30.78;99452.96;1841992;76;28199;-56
2023/03/03 10:43:20;;;;;;;2.20;2.10;;;;;;;19.51;30.76;99452.54;1853836;76;28234;-58
2023/03/03 10:46:23;;;;;;;2.33;2.12;;;;;;;19.48;30.78;99454.32;1838574;77;28164;-57
2023/03/03 10:49:30;;;;;;;2.10;2.00;;;;;;;19.50;30.74;99452.22;1846989;76;28277;-53
2023/03/03 10:52:38;;;;;;;2.20;2.00;;;;;;;19.50;30.76;99452.22;1828064;77;28200;-56
2023/03/03 10:55:29;;;;;;;2.00;1.90;;;;;;;19.47;30.77;99448.03;1832386;77;28234;-56
2023/03/03 10:58:33;;;;;;;2.25;2.15;;;;;;;19.50;30.77;99442.16;1835699;77;28258;-58
2023/03/03 11:01:44;;;;;;;2.20;2.10;;;;;;;19.48;30.77;99444.27;1836117;77;28264;-57
2023/03/03 11:04:44;;;;;;;2.33;2.12;;;;;;;19.47;30.82;99444.46;1845996;77;28275;-55
2023/03/03 11:07:47;;;;;;;2.58;2.37;;;;;;;19.48;30.81;99440.70;1842617;77;28251;-52
2023/03/03 11:10:53;;;;;;;2.10;2.00;;;;;;;19.51;30.80;99447.91;1854044;76;30225;-54
2023/03/03 11:14:00;;;;;;;2.20;2.00;;;;;;;19.52;30.78;99437.84;1838856;77;28635;-55
2023/03/03 11:16:57;;;;;;;2.20;2.10;;;;;;;19.52;30.76;99440.05;1837315;77;28222;-57
2023/03/03 11:19:55;;;;;;;1.87;1.77;;;;;;;19.50;30.76;99430.42;1828743;77;28232;-55
2023/03/03 11:22:57;;;;;;;2.27;2.17;;;;;;;19.55;30.74;99433.34;1858376;76;28142;-56
2023/03/03 11:25:52;;;;;;;2.20;2.10;;;;;;;19.54;30.75;99428.93;1846390;77;28130;-58
2023/03/03 11:29:03;;;;;;;2.00;1.90;;;;;;;19.52;30.77;99424.22;1855363;76;28196;-57
2023/03/03 11:32:03;;;;;;;2.22;2.02;;;;;;;19.54;30.77;99419.39;1842846;77;28121;-56
2023/03/03 11:35:04;;;;;;;2.17;2.00;;;;;;;19.53;30.75;99419.94;1854307;76;28825;-55
2023/03/03 11:38:04;;;;;;;2.17;2.08;;;;;;;19.54;30.77;99409.86;1856797;77;28279;-57
2023/03/03 11:40:55;;;;;;;2.30;2.20;;;;;;;19.53;30.76;99416.38;1840895;76;28239;-57
2023/03/03 11:43:47;;;;;;;2.00;1.90;;;;;;;19.53;30.74;99402.75;1856899;76;28312;-54
2023/03/03 11:46:48;;;;;;;2.30;2.10;;;;;;;19.53;30.78;99403.59;1858098;76;28195;-56
2023/03/03 11:49:45;;;;;;;2.40;2.25;;;;;;;19.55;30.71;99401.48;1828004;77;28197;-56
2023/03/03 11:52:54;;;;;;;2.50;2.30;;;;;;;19.57;30.71;99401.26;1802319;78;28313;-56
2023/03/03 11:55:45;;;;;;;2.50;2.30;;;;;;;19.56;30.72;99396.84;1807341;78;28319;-56
2023/03/03 11:58:42;;;;;;;2.57;2.37;;;;;;;19.54;30.74;99395.72;1879160;75;28227;-59
2023/03/03 12:01:57;;;;;;;2.40;2.20;;;;;;;19.58;30.71;99392.05;1813973;75;28348;-57
2023/03/03 12:04:54;;;;;;;2.55;2.20;;;;;;;19.58;30.70;99383.87;1839697;75;28231;-58
2023/03/03 12:07:51;;;;;;;2.25;2.15;;;;;;;19.57;30.72;99384.91;1865378;75;28257;-60
2023/03/03 12:11:03;;;;;;;2.40;2.20;;;;;;;19.55;30.71;99384.30;1867234;75;28595;-60
2023/03/03 12:14:04;;;;;;;2.20;2.10;;;;;;;19.55;30.73;99376.97;1866539;75;28145;-56
2023/03/03 12:17:01;;;;;;;2.58;2.37;;;;;;;19.53;30.74;99387.77;1863657;75;28125;-54
2023/03/03 12:20:11;;;;;;;2.65;2.45;;;;;;;19.52;30.77;99382.84;1855089;75;28276;-55
2023/03/03 12:23:14;;;;;;;2.40;2.20;;;;;;;19.55;30.72;99372.04;1874012;75;28328;-55
2023/03/03 12:26:05;;;;;;;2.58;2.37;;;;;;;19.56;30.74;99372.33;1800721;78;28583;-56
2023/03/03 12:29:00;;;;;;;2.40;2.20;;;;;;;19.56;30.71;99365.52;1831767;77;28120;-57
2023/03/03 12:32:03;;;;;;;2.30;2.10;;;;;;;19.55;30.71;99363.87;1804433;78;28288;-56
2023/03/03 12:34:55;;;;;;;2.40;2.23;;;;;;;19.55;30.72;99363.34;1812084;78;28501;-55
2023/03/03 12:38:04;;;;;;;2.50;2.30;;;;;;;19.56;30.72;99353.26;1821188;78;28407;-53
2023/03/03 12:41:02;;;;;;;2.03;1.93;;;;;;;19.60;30.67;99354.52;1821315;78;28361;-53
2023/03/03 12:44:08;;;;;;;2.35;2.12;;;;;;;19.58;30.67;99351.18;1820896;78;36521;-56
2023/03/03 12:47:05;;;;;;;2.37;2.20;;;;;;;19.57;30.67;99353.06;1821130;78;28331;-56
2023/03/03 12:49:59;;;;;;;2.13;2.00;;;;;;;19.56;30.73;99351.38;1819330;78;28280;-54
2023/03/03 12:52:59;;;;;;;2.37;2.08;;;;;;;19.59;30.66;99352.31;1831168;78;28333;-55
2023/03/03 12:55:51;;;;;;;2.50;2.30;;;;;;;19.59;30.70;99341.41;1812362;78;28366;-51
2023/03/03 12:58:56;;;;;;;2.33;2.23;;;;;;;19.58;30.67;99345.73;1810670;78;28372;-55
2023/03/03 13:02:03;;;;;;;2.62;2.42;;;;;;;19.54;30.73;99340.39;1825970;78;28805;-54
2023/03/03 13:05:06;;;;;;;2.40;2.20;;;;;;;19.55;30.71;99343.44;1821133;78;28353;-55
2023/03/03 13:08:14;;;;;;;2.60;2.40;;;;;;;19.56;30.71;99339.64;1821036;78;28339;-56
2023/03/03 13:11:08;;;;;;;3.10;2.30;;;;;;;19.54;30.74;99343.11;1820159;78;28439;-55
2023/03/03 13:14:05;;;;;;;2.20;2.00;;;;;;;19.53;30.73;99342.30;1801006;79;28372;-54
2023/03/03 13:16:56;;;;;;;2.30;2.20;;;;;;;19.53;30.74;99342.82;1808513;78;28284;-57
2023/03/03 13:19:50;;;;;;;2.52;2.33;;;;;;;19.54;30.76;99339.87;1878034;75;28304;-54
2023/03/03 13:22:44;;;;;;;2.30;2.15;;;;;;;19.58;30.68;99337.00;1832382;77;28398;-56
2023/03/03 13:25:53;;;;;;;2.30;2.13;;;;;;;19.55;30.71;99340.71;1812610;78;28327;-55
2023/03/03 13:28:44;;;;;;;2.47;2.37;;;;;;;19.56;30.68;99346.45;1804947;78;28293;-56
2023/03/03 13:31:35;;;;;;;2.60;2.40;;;;;;;19.55;30.67;99340.71;1800981;79;28430;-55
2023/03/03 13:34:30;;;;;;;2.47;2.27;;;;;;;19.56;30.70;99338.27;1821470;78;28346;-57
2023/03/03 13:37:33;;;;;;;2.50;2.30;;;;;;;19.56;30.71;99339.12;1820838;78;28335;-55
2023/03/03 13:40:28;;;;;;;2.30;2.10;;;;;;;19.54;30.71;99337.14;1821300;78;28788;-54